createdAt,value
2018-11-29T00:01:06.356Z,47.48
2018-11-29T00:04:11.330Z,48.01
2018-11-29T00:07:33.141Z,48.24
2018-11-29T00:10:40.955Z,47.83
2018-11-29T00:13:45.025Z,48.28
2018-11-29T00:16:49.170Z,48.21
2018-11-29T00:19:53.298Z,48.05
2018-11-29T00:22:57.359Z,48.68
2018-11-29T00:26:01.438Z,48.29
2018-11-29T00:29:05.593Z,47.55
2018-11-29T00:32:09.645Z,48.31
2018-11-29T00:35:13.894Z,48.02
2018-11-29T00:38:17.962Z,48.02
2018-11-29T00:41:22.060Z,47.99
2018-11-29T00:44:26.108Z,47.59
2018-11-29T00:47:30.191Z,47.35
2018-11-29T00:50:34.261Z,47.28
2018-11-29T00:53:38.318Z,47.43
2018-11-29T00:56:42.501Z,47.77
2018-11-29T00:59:46.562Z,47.52
2018-11-29T01:02:50.722Z,47.76
2018-11-29T01:05:55.340Z,47.87
2018-11-29T01:08:59.460Z,49.20
2018-11-29T01:12:03.703Z,50.17
2018-11-29T01:15:07.987Z,47.63
2018-11-29T01:18:12.068Z,47.36
2018-11-29T01:21:16.117Z,46.90
2018-11-29T01:24:20.190Z,47.40
2018-11-29T01:27:24.273Z,48.02
2018-11-29T01:30:28.353Z,47.73
2018-11-29T01:33:32.436Z,47.80
2018-11-29T01:36:36.505Z,47.67
2018-11-29T01:39:40.589Z,47.31
2018-11-29T01:42:44.647Z,47.34
2018-11-29T01:45:48.820Z,48.57
2018-11-29T01:48:52.910Z,47.61
2018-11-29T01:51:56.968Z,47.22
2018-11-29T01:55:01.071Z,47.00
2018-11-29T01:58:05.203Z,46.92
2018-11-29T02:01:09.348Z,47.32
2018-11-29T02:04:13.422Z,47.82
2018-11-29T02:07:17.478Z,48.04
2018-11-29T02:10:22.423Z,47.98
2018-11-29T02:13:26.479Z,47.86
2018-11-29T02:16:30.564Z,48.83
2018-11-29T02:19:34.641Z,48.13
2018-11-29T02:22:38.698Z,50.33
2018-11-29T02:25:42.784Z,50.71
2018-11-29T02:28:47.212Z,50.64
2018-11-29T02:31:51.377Z,51.68
2018-11-29T02:34:56.301Z,50.00
2018-11-29T02:38:00.387Z,48.95
2018-11-29T02:41:05.407Z,46.97
2018-11-29T02:44:09.452Z,47.41
2018-11-29T02:47:13.527Z,47.72
2018-11-29T02:50:17.616Z,47.72
2018-11-29T02:53:21.664Z,47.80
2018-11-29T02:56:25.750Z,48.17
2018-11-29T02:59:29.801Z,48.08
2018-11-29T03:02:33.873Z,48.31
2018-11-29T03:05:37.934Z,49.33
2018-11-29T03:08:42.008Z,49.60
2018-11-29T03:11:46.134Z,47.95
2018-11-29T03:14:50.219Z,48.03
2018-11-29T03:17:54.296Z,49.14
2018-11-29T03:20:58.361Z,48.77
2018-11-29T03:24:02.428Z,49.59
2018-11-29T03:27:06.508Z,49.62
2018-11-29T03:30:10.587Z,49.79
2018-11-29T03:33:14.664Z,49.16
2018-11-29T03:36:18.730Z,47.93
2018-11-29T03:39:22.803Z,47.94
2018-11-29T03:42:26.899Z,48.20
2018-11-29T03:45:30.973Z,48.27
2018-11-29T03:48:35.048Z,48.53
2018-11-29T03:51:39.123Z,48.69
2018-11-29T03:54:43.204Z,48.82
2018-11-29T03:57:47.283Z,49.00
2018-11-29T04:00:51.354Z,48.86
2018-11-29T04:03:55.420Z,49.03
2018-11-29T04:06:59.494Z,49.45
2018-11-29T04:10:04.290Z,48.82
2018-11-29T04:13:08.362Z,48.68
2018-11-29T04:16:12.448Z,48.92
2018-11-29T04:19:16.516Z,48.93
2018-11-29T04:22:20.594Z,48.45
2018-11-29T04:25:24.659Z,48.87
2018-11-29T04:28:28.733Z,48.66
2018-11-29T04:31:32.823Z,48.60
2018-11-29T04:34:36.887Z,49.71
2018-11-29T04:37:41.214Z,52.26
2018-11-29T04:40:45.350Z,50.41
2018-11-29T04:43:49.429Z,49.21
2018-11-29T04:46:53.660Z,48.07
2018-11-29T04:49:57.724Z,48.39
2018-11-29T04:53:01.807Z,48.58
2018-11-29T04:56:05.866Z,48.57
2018-11-29T04:59:09.948Z,49.11
2018-11-29T05:02:14.033Z,50.00
2018-11-29T05:05:18.097Z,50.11
2018-11-29T05:08:22.162Z,51.70
2018-11-29T05:11:26.307Z,53.82
2018-11-29T05:14:30.386Z,53.32
2018-11-29T05:17:34.456Z,53.38
2018-11-29T05:20:38.541Z,52.13
2018-11-29T05:23:42.601Z,54.11
2018-11-29T05:26:46.685Z,51.94
2018-11-29T05:29:50.764Z,53.70
2018-11-29T05:32:54.838Z,52.98
2018-11-29T05:35:58.935Z,52.97
2018-11-29T05:39:03.956Z,52.76
2018-11-29T05:42:08.025Z,52.28
2018-11-29T05:45:12.244Z,51.08
2018-11-29T05:48:16.336Z,54.28
2018-11-29T05:51:20.408Z,53.43
2018-11-29T05:54:24.576Z,51.46
2018-11-29T05:57:28.635Z,50.46
2018-11-29T06:00:32.886Z,51.85
2018-11-29T06:03:36.937Z,53.32
2018-11-29T06:06:41.030Z,52.93
2018-11-29T06:09:45.085Z,53.76
2018-11-29T06:12:49.173Z,52.12
2018-11-29T06:15:53.256Z,56.06
2018-11-29T06:18:57.331Z,55.81
2018-11-29T06:22:01.407Z,50.80
2018-11-29T06:25:06.228Z,53.18
2018-11-29T06:28:10.297Z,52.09
2018-11-29T06:31:14.487Z,53.13
2018-11-29T06:34:18.552Z,53.87
2018-11-29T06:37:22.631Z,52.62
2018-11-29T06:40:26.690Z,53.92
2018-11-29T06:43:30.766Z,54.83
2018-11-29T06:46:34.846Z,51.65
2018-11-29T06:49:38.900Z,52.70
2018-11-29T06:52:43.132Z,53.55
2018-11-29T06:55:47.208Z,50.73
2018-11-29T06:58:51.287Z,52.36
2018-11-29T07:01:55.420Z,54.68
2018-11-29T07:04:59.487Z,50.92
2018-11-29T07:08:03.638Z,53.21
2018-11-29T07:11:07.695Z,51.37
2018-11-29T07:14:11.797Z,55.98
2018-11-29T07:17:15.854Z,52.15
2018-11-29T07:20:19.947Z,50.00
2018-11-29T07:23:24.029Z,50.41
2018-11-29T07:26:28.092Z,48.24
2018-11-29T07:29:32.165Z,47.06
2018-11-29T07:32:36.251Z,47.20
2018-11-29T07:35:40.339Z,47.11
2018-11-29T07:38:44.410Z,47.08
2018-11-29T07:41:48.497Z,46.94
2018-11-29T07:44:52.575Z,47.10
2018-11-29T07:47:56.658Z,46.86
2018-11-29T07:51:00.818Z,46.66
2018-11-29T07:54:05.248Z,47.12
2018-11-29T07:57:09.312Z,48.38
2018-11-29T08:00:13.720Z,46.02
2018-11-29T08:03:17.794Z,46.61
2018-11-29T08:06:21.891Z,46.38
2018-11-29T08:09:26.231Z,46.47
2018-11-29T08:12:30.308Z,46.09
2018-11-29T08:15:34.443Z,45.89
2018-11-29T08:18:38.522Z,45.13
2018-11-29T08:21:42.593Z,45.21
2018-11-29T08:24:46.670Z,44.92
2018-11-29T08:27:50.760Z,45.05
2018-11-29T08:30:54.844Z,44.86
2018-11-29T08:33:58.921Z,45.20
2018-11-29T08:37:03.050Z,44.63
2018-11-29T08:40:07.091Z,44.89
2018-11-29T08:43:11.166Z,44.72
2018-11-29T08:46:15.250Z,44.45
2018-11-29T08:49:19.331Z,43.88
2018-11-29T08:52:23.402Z,44.30
2018-11-29T08:55:27.482Z,44.60
2018-11-29T08:58:31.563Z,43.94
2018-11-29T09:01:35.644Z,44.42
2018-11-29T09:04:39.723Z,44.47
2018-11-29T09:07:43.937Z,44.26
2018-11-29T09:10:48.014Z,44.43
2018-11-29T09:13:52.073Z,44.39
2018-11-29T09:16:56.168Z,44.42
2018-11-29T09:20:00.234Z,43.91
2018-11-29T09:23:05.276Z,44.00
2018-11-29T09:26:09.328Z,44.31
2018-11-29T09:29:13.845Z,44.88
2018-11-29T09:32:17.981Z,44.75
2018-11-29T09:35:22.054Z,45.11
2018-11-29T09:38:26.132Z,44.62
2018-11-29T09:41:30.291Z,44.64
2018-11-29T09:44:34.365Z,43.92
2018-11-29T09:47:38.462Z,43.38
2018-11-29T09:50:42.549Z,42.89
2018-11-29T09:53:46.634Z,42.89
2018-11-29T09:56:50.703Z,42.72
2018-11-29T09:59:54.797Z,42.71
2018-11-29T10:02:58.916Z,42.86
2018-11-29T10:06:02.990Z,42.75
2018-11-29T10:09:07.232Z,43.36
2018-11-29T10:12:11.298Z,42.84
2018-11-29T10:15:15.380Z,42.44
2018-11-29T10:18:19.486Z,42.40
2018-11-29T10:21:23.555Z,42.06
2018-11-29T10:24:27.645Z,41.78
2018-11-29T10:27:31.721Z,41.96
2018-11-29T10:30:35.809Z,41.22
2018-11-29T10:33:40.781Z,41.05
2018-11-29T10:36:44.888Z,40.80
2018-11-29T10:39:48.955Z,40.87
2018-11-29T10:42:53.033Z,41.07
2018-11-29T10:45:57.121Z,40.61
2018-11-29T10:49:01.189Z,40.29
2018-11-29T10:52:05.526Z,40.12
2018-11-29T10:55:09.740Z,40.02
2018-11-29T10:58:13.818Z,39.70
2018-11-29T11:01:18.770Z,39.25
2018-11-29T11:04:22.845Z,39.15
2018-11-29T11:07:26.930Z,39.31
2018-11-29T11:10:31.084Z,39.50
2018-11-29T11:13:35.165Z,38.55
2018-11-29T11:16:40.168Z,39.13
2018-11-29T11:19:44.236Z,39.84
2018-11-29T11:22:48.402Z,40.37
2018-11-29T11:25:52.479Z,40.62
2018-11-29T11:28:56.570Z,40.84
2018-11-29T11:32:00.651Z,40.58
2018-11-29T11:35:05.871Z,40.88
2018-11-29T11:38:09.958Z,41.30
2018-11-29T11:41:14.014Z,41.18
2018-11-29T11:44:18.193Z,42.03
2018-11-29T11:47:22.332Z,41.86
2018-11-29T11:50:26.455Z,41.83
2018-11-29T11:53:30.564Z,41.77
2018-11-29T11:56:34.635Z,41.84
2018-11-29T11:59:38.720Z,42.12
2018-11-29T12:02:42.952Z,42.17
2018-11-29T12:05:47.102Z,41.72
2018-11-29T12:08:51.167Z,42.17
2018-11-29T12:11:55.257Z,42.21
2018-11-29T12:14:59.351Z,41.82
2018-11-29T12:18:03.497Z,47.32
2018-11-29T12:21:07.579Z,41.32
2018-11-29T12:24:12.540Z,42.33
2018-11-29T12:27:16.618Z,41.53
2018-11-29T12:30:20.784Z,41.18
2018-11-29T12:33:24.860Z,41.94
2018-11-29T12:36:28.969Z,42.13
2018-11-29T12:39:33.019Z,42.36
2018-11-29T12:42:37.110Z,42.16
2018-11-29T12:45:41.206Z,43.24
2018-11-29T12:48:45.267Z,42.16
2018-11-29T12:51:49.359Z,41.49
2018-11-29T12:54:53.420Z,40.87
2018-11-29T12:58:05.254Z,41.74
2018-11-29T13:01:02.479Z,40.60
2018-11-29T13:04:06.772Z,41.32
2018-11-29T13:07:10.857Z,43.14
2018-11-29T13:10:14.937Z,42.42
2018-11-29T13:13:19.018Z,41.25
2018-11-29T13:16:23.099Z,40.80
2018-11-29T13:19:27.292Z,39.87
2018-11-29T13:22:31.343Z,40.07
2018-11-29T13:25:35.492Z,40.06
2018-11-29T13:28:39.577Z,40.26
2018-11-29T13:31:43.663Z,40.41
2018-11-29T13:34:47.742Z,40.64
2018-11-29T13:37:51.815Z,40.70
2018-11-29T13:40:55.910Z,40.58
2018-11-29T13:44:00.070Z,40.42
2018-11-29T13:47:04.480Z,40.36
2018-11-29T13:50:08.641Z,40.26
2018-11-29T13:53:12.701Z,40.24
2018-11-29T13:56:16.791Z,40.64
2018-11-29T13:59:20.887Z,40.40
2018-11-29T14:02:24.940Z,40.12
2018-11-29T14:05:29.038Z,40.33
2018-11-29T14:08:33.105Z,40.33
2018-11-29T14:11:37.206Z,40.35
2018-11-29T14:14:41.298Z,40.35
2018-11-29T14:17:45.464Z,40.14
2018-11-29T14:20:49.554Z,40.15
2018-11-29T14:23:53.616Z,40.34
2018-11-29T14:26:57.699Z,40.36
2018-11-29T14:30:01.768Z,40.33
2018-11-29T14:33:06.000Z,40.25
2018-11-29T14:36:10.084Z,40.35
2018-11-29T14:39:14.167Z,40.43
2018-11-29T14:42:18.267Z,40.37
2018-11-29T14:45:22.334Z,40.20
2018-11-29T14:48:26.433Z,40.41
2018-11-29T14:51:30.514Z,40.44
2018-11-29T14:54:34.587Z,40.52
2018-11-29T14:57:38.735Z,40.46
2018-11-29T15:00:42.836Z,40.11
2018-11-29T15:03:46.913Z,40.32
2018-11-29T15:06:50.984Z,40.01
2018-11-29T15:09:55.055Z,39.82
2018-11-29T15:12:59.158Z,40.04
2018-11-29T15:16:03.446Z,40.23
2018-11-29T15:19:07.513Z,40.09
2018-11-29T15:22:11.604Z,40.13
2018-11-29T15:25:15.679Z,40.18
2018-11-29T15:28:19.776Z,40.04
2018-11-29T15:31:23.863Z,39.98
2018-11-29T15:34:27.956Z,39.78
2018-11-29T15:37:32.055Z,39.98
2018-11-29T15:40:36.192Z,40.21
2018-11-29T15:43:40.287Z,41.20
2018-11-29T15:46:44.359Z,40.00
2018-11-29T15:49:48.528Z,39.56
2018-11-29T15:52:52.602Z,39.52
2018-11-29T15:55:56.718Z,39.89
2018-11-29T15:59:00.803Z,40.17
2018-11-29T16:02:05.325Z,40.51
2018-11-29T16:05:09.487Z,40.67
2018-11-29T16:08:13.557Z,40.47
2018-11-29T16:11:17.649Z,40.67
2018-11-29T16:14:21.752Z,40.77
2018-11-29T16:17:25.814Z,41.33
2018-11-29T16:20:29.885Z,41.45
2018-11-29T16:23:33.949Z,41.31
2018-11-29T16:26:38.080Z,41.33
2018-11-29T16:29:42.252Z,41.25
2018-11-29T16:32:46.316Z,41.20
2018-11-29T16:35:50.485Z,41.06
2018-11-29T16:38:54.623Z,40.91
2018-11-29T16:41:58.762Z,40.75
2018-11-29T16:45:03.114Z,40.82
2018-11-29T16:48:07.207Z,40.81
2018-11-29T16:51:11.325Z,41.05
2018-11-29T16:54:15.396Z,41.49
2018-11-29T16:57:19.489Z,42.15
2018-11-29T17:00:23.562Z,42.57
2018-11-29T17:03:27.641Z,42.80
2018-11-29T17:06:31.702Z,42.82
2018-11-29T17:09:35.783Z,42.54
2018-11-29T17:12:39.845Z,42.32
2018-11-29T17:15:43.931Z,42.27
2018-11-29T17:18:47.994Z,42.29
2018-11-29T17:21:52.107Z,42.14
2018-11-29T17:24:56.180Z,42.13
2018-11-29T17:28:00.303Z,42.65
2018-11-29T17:31:05.114Z,42.51
2018-11-29T17:34:09.226Z,43.02
2018-11-29T17:37:13.314Z,43.21
2018-11-29T17:40:18.371Z,43.08
2018-11-29T17:43:22.437Z,42.61
2018-11-29T17:46:26.541Z,42.55
2018-11-29T17:49:30.638Z,42.53
2018-11-29T17:52:34.791Z,43.26
2018-11-29T17:55:38.956Z,44.00
2018-11-29T17:59:50.276Z,43.78
2018-11-29T18:02:54.445Z,43.21
2018-11-29T18:05:58.528Z,42.87
2018-11-29T18:09:03.499Z,43.05
2018-11-29T18:12:09.365Z,45.74
2018-11-29T18:15:13.527Z,46.15
2018-11-29T18:18:17.603Z,45.36
2018-11-29T18:21:49.195Z,47.59
2018-11-29T18:24:53.287Z,43.88
2018-11-29T18:27:57.392Z,45.61
2018-11-29T18:31:01.488Z,44.44
2018-11-29T18:34:05.739Z,44.27
2018-11-29T18:37:09.831Z,44.60
2018-11-29T18:40:13.958Z,44.51
2018-11-29T18:43:18.037Z,44.84
2018-11-29T18:46:22.098Z,45.27
2018-11-29T18:49:26.178Z,45.21
2018-11-29T18:52:30.274Z,45.53
2018-11-29T18:55:34.378Z,45.53
2018-11-29T18:58:38.474Z,47.76
2018-11-29T19:01:42.539Z,45.66
2018-11-29T19:04:46.637Z,44.67
2018-11-29T19:07:50.851Z,44.50
2018-11-29T19:10:54.942Z,45.15
2018-11-29T19:13:59.058Z,45.42
2018-11-29T19:17:03.150Z,44.84
2018-11-29T19:20:07.399Z,44.91
2018-11-29T19:23:11.481Z,44.86
2018-11-29T19:26:15.574Z,45.05
2018-11-29T19:29:19.663Z,45.26
2018-11-29T19:32:23.751Z,47.73
2018-11-29T19:35:27.851Z,47.12
2018-11-29T19:38:31.929Z,45.77
2018-11-29T19:41:36.115Z,45.31
2018-11-29T19:44:40.218Z,45.71
2018-11-29T19:47:44.310Z,46.00
2018-11-29T19:50:48.389Z,46.75
2018-11-29T19:53:52.458Z,47.32
2018-11-29T19:56:56.552Z,47.92
2018-11-29T20:00:00.621Z,50.14
2018-11-29T20:03:05.087Z,46.52
2018-11-29T20:06:09.182Z,46.70
2018-11-29T20:09:13.261Z,47.44
2018-11-29T20:12:17.365Z,46.08
2018-11-29T20:15:21.432Z,46.38
2018-11-29T20:18:25.524Z,47.45
2018-11-29T20:21:29.589Z,46.71
2018-11-29T20:24:33.685Z,48.45
2018-11-29T20:27:37.753Z,49.64
2018-11-29T20:30:41.866Z,49.32
2018-11-29T20:33:46.009Z,46.77
2018-11-29T20:36:51.030Z,47.65
2018-11-29T20:39:55.113Z,47.87
2018-11-29T20:42:59.281Z,46.30
2018-11-29T20:46:03.345Z,47.76
2018-11-29T20:49:07.434Z,49.44
2018-11-29T20:52:11.508Z,49.10
2018-11-29T20:55:15.608Z,47.93
2018-11-29T20:58:19.702Z,48.30
2018-11-29T21:01:23.782Z,50.43
2018-11-29T21:04:27.867Z,47.71
2018-11-29T21:07:31.946Z,47.21
2018-11-29T21:10:36.069Z,47.17
2018-11-29T21:13:40.121Z,50.00
2018-11-29T21:16:44.247Z,49.82
2018-11-29T21:19:48.347Z,51.47
2018-11-29T21:22:53.292Z,50.23
2018-11-29T21:25:57.384Z,49.48
2018-11-29T21:29:01.486Z,48.99
2018-11-29T21:32:05.843Z,46.05
2018-11-29T21:35:10.069Z,47.01
2018-11-29T21:38:14.246Z,50.08
2018-11-29T21:41:18.325Z,49.27
2018-11-29T21:44:22.399Z,47.68
2018-11-29T21:47:26.465Z,48.52
2018-11-29T21:50:30.570Z,48.13
2018-11-29T21:53:34.681Z,45.63
2018-11-29T21:56:38.786Z,45.92
2018-11-29T21:59:42.851Z,46.29
2018-11-29T22:02:46.944Z,47.15
2018-11-29T22:05:51.027Z,46.79
2018-11-29T22:08:55.196Z,47.28
2018-11-29T22:12:00.961Z,46.02
2018-11-29T22:15:48.707Z,48.14
2018-11-29T22:23:47.942Z,50.59
2018-11-29T22:27:50.156Z,49.38
2018-11-29T22:32:10.006Z,51.17
2018-11-29T22:35:14.077Z,50.52
2018-11-29T22:38:18.247Z,46.90
2018-11-29T22:41:22.339Z,49.35
2018-11-29T22:44:26.435Z,49.70
2018-11-29T22:47:30.550Z,47.20
2018-11-29T22:50:34.637Z,47.26
2018-11-29T22:53:38.717Z,47.16
2018-11-29T22:56:42.827Z,46.36
2018-11-29T22:59:47.024Z,47.00
2018-11-29T23:02:51.068Z,47.73
2018-11-29T23:05:55.156Z,49.60
2018-11-29T23:08:59.228Z,49.59
2018-11-29T23:12:03.325Z,46.80
2018-11-29T23:15:08.916Z,47.00
2018-11-29T23:18:13.047Z,51.00
2018-11-29T23:21:17.139Z,50.52
2018-11-29T23:24:21.216Z,49.86
2018-11-29T23:27:25.302Z,50.13
2018-11-29T23:30:29.380Z,51.12
2018-11-29T23:33:33.573Z,49.43
2018-11-29T23:36:37.637Z,47.47
2018-11-29T23:39:41.697Z,49.19
2018-11-29T23:42:45.847Z,46.77
2018-11-29T23:45:50.015Z,49.33
2018-11-29T23:48:54.098Z,49.90
2018-11-29T23:51:58.184Z,50.75
2018-11-29T23:55:02.247Z,51.73
2018-11-29T23:58:06.490Z,50.31
